首页
METAR-TAF:

METAR-TAF

机场 :

奥古斯塔, 喬治亞, 美国

纬度: 33-21-52N, 经度: 081-57-48W, 海拔: 44米

当前天气观测

该预报发布于22分钟前的09:53 UTC
静风
温度 21°C
湿度 94%
气压 1019 hPa
能見度: 8.0公里
天空无云
轻雾

METAR: KAGS 260953Z AUTO 00000KT 5SM BR CLR 21/20 A3010 RMK AO2 SLP191 T02060200

时间: 06:15 (10:15 UTC)

预报

该预报发布于1小时和29分钟前的08:46 UTC
预报有效从26日的 09点(UTC)到 27日的 06点(UTC)
风速节,风向
能見度: 10公里
天空无云
短暂存在
从 26日的 10点(UTC)到 26日的 12点(UTC)
能見度: 6.4公里
轻雾
从 26日的 1500点(UTC)
风速9节,风向西转西北
能見度: 10公里
少量云层高于6000英尺
从 27日的 0000点(UTC)
风速3节,风向多变
能見度: 10公里
少量云层高于25000英尺

TAF: KAGS 260846Z 2609/2706 00000KT P6SM SKC TEMPO 2610/2612 4SM BR FM261500 29009KT P6SM FEW060 FM270000 VRB03KT P6SM FEW250

超过4000个机场的气象观测和天气预报(METAR&TAF报告)。

可查询的气象台以黄色和红色小点在地图上表示。

将鼠标移到小点上方,可查看气象台名称。

然后点击查看天气观测和预报。

如需切换地图:点击带黑十字的绿色按钮放大地图;点击带横线的绿色按钮缩小地图;或者点击绿色箭头查看邻近地区的地图。


METAR-TAF: